sensor_id;sensor_type;location;lat;lon;timestamp;P1;durP1;ratioP1;P2;durP2;ratioP2
579;SDS011;276;48.392;9.950;2022-10-16T00:01:24;2.83;;;2.63;;
579;SDS011;276;48.392;9.950;2022-10-16T00:03:54;3.13;;;2.17;;
579;SDS011;276;48.392;9.950;2022-10-16T00:06:23;2.97;;;2.77;;
579;SDS011;276;48.392;9.950;2022-10-16T00:08:49;2.63;;;2.43;;
579;SDS011;276;48.392;9.950;2022-10-16T00:13:43;3.13;;;2.93;;
579;SDS011;276;48.392;9.950;2022-10-16T00:16:10;3.00;;;2.80;;
579;SDS011;276;48.392;9.950;2022-10-16T00:18:37;2.40;;;2.30;;
579;SDS011;276;48.392;9.950;2022-10-16T00:21:07;5.23;;;2.73;;
579;SDS011;276;48.392;9.950;2022-10-16T00:23:38;4.00;;;3.30;;
579;SDS011;276;48.392;9.950;2022-10-16T00:26:07;2.67;;;2.47;;
579;SDS011;276;48.392;9.950;2022-10-16T00:28:35;2.43;;;2.23;;
579;SDS011;276;48.392;9.950;2022-10-16T00:31:05;2.20;;;2.10;;
579;SDS011;276;48.392;9.950;2022-10-16T00:33:32;2.07;;;1.93;;
579;SDS011;276;48.392;9.950;2022-10-16T00:36:00;2.97;;;2.77;;
579;SDS011;276;48.392;9.950;2022-10-16T00:38:27;3.47;;;3.17;;
579;SDS011;276;48.392;9.950;2022-10-16T00:40:52;2.57;;;2.37;;
579;SDS011;276;48.392;9.950;2022-10-16T00:46:13;2.77;;;2.57;;
579;SDS011;276;48.392;9.950;2022-10-16T00:48:44;2.37;;;2.17;;
579;SDS011;276;48.392;9.950;2022-10-16T00:51:35;2.77;;;2.57;;
579;SDS011;276;48.392;9.950;2022-10-16T00:54:02;2.27;;;2.17;;
579;SDS011;276;48.392;9.950;2022-10-16T00:56:33;4.43;;;2.90;;
579;SDS011;276;48.392;9.950;2022-10-16T00:58:59;3.30;;;3.10;;
579;SDS011;276;48.392;9.950;2022-10-16T01:01:29;5.27;;;2.83;;
579;SDS011;276;48.392;9.950;2022-10-16T01:03:55;3.00;;;2.80;;
579;SDS011;276;48.392;9.950;2022-10-16T01:06:36;3.47;;;2.70;;
579;SDS011;276;48.392;9.950;2022-10-16T01:14:12;3.00;;;2.80;;
579;SDS011;276;48.392;9.950;2022-10-16T01:16:52;3.23;;;3.03;;
579;SDS011;276;48.392;9.950;2022-10-16T01:21:59;2.77;;;2.57;;
579;SDS011;276;48.392;9.950;2022-10-16T01:32:11;3.43;;;3.13;;
579;SDS011;276;48.392;9.950;2022-10-16T01:34:47;5.37;;;3.30;;
579;SDS011;276;48.392;9.950;2022-10-16T01:37:32;3.47;;;3.17;;
579;SDS011;276;48.392;9.950;2022-10-16T01:40:13;3.50;;;3.30;;
579;SDS011;276;48.392;9.950;2022-10-16T01:42:47;3.40;;;3.10;;
579;SDS011;276;48.392;9.950;2022-10-16T01:45:17;3.40;;;3.10;;
579;SDS011;276;48.392;9.950;2022-10-16T01:47:50;4.33;;;3.80;;
579;SDS011;276;48.392;9.950;2022-10-16T01:50:18;5.00;;;2.90;;
579;SDS011;276;48.392;9.950;2022-10-16T01:52:46;2.80;;;2.60;;
579;SDS011;276;48.392;9.950;2022-10-16T01:55:17;5.53;;;3.73;;
579;SDS011;276;48.392;9.950;2022-10-16T01:57:52;3.47;;;3.17;;
579;SDS011;276;48.392;9.950;2022-10-16T02:00:19;2.77;;;2.57;;
579;SDS011;276;48.392;9.950;2022-10-16T02:02:47;3.70;;;3.30;;
579;SDS011;276;48.392;9.950;2022-10-16T02:05:30;3.50;;;3.30;;
579;SDS011;276;48.392;9.950;2022-10-16T02:08:03;2.90;;;2.70;;
579;SDS011;276;48.392;9.950;2022-10-16T02:10:32;3.40;;;3.10;;
579;SDS011;276;48.392;9.950;2022-10-16T02:13:01;2.90;;;2.57;;
579;SDS011;276;48.392;9.950;2022-10-16T02:15:34;3.10;;;2.83;;
579;SDS011;276;48.392;9.950;2022-10-16T02:18:01;6.13;;;2.90;;
579;SDS011;276;48.392;9.950;2022-10-16T02:20:31;2.97;;;2.40;;
579;SDS011;276;48.392;9.950;2022-10-16T02:23:03;3.40;;;3.10;;
579;SDS011;276;48.392;9.950;2022-10-16T02:25:35;2.77;;;2.60;;
579;SDS011;276;48.392;9.950;2022-10-16T02:30:42;3.07;;;2.87;;
579;SDS011;276;48.392;9.950;2022-10-16T02:33:20;7.47;;;2.80;;
579;SDS011;276;48.392;9.950;2022-10-16T02:35:48;3.10;;;2.90;;
579;SDS011;276;48.392;9.950;2022-10-16T02:38:18;3.23;;;2.90;;
579;SDS011;276;48.392;9.950;2022-10-16T02:40:45;3.63;;;3.33;;
579;SDS011;276;48.392;9.950;2022-10-16T02:43:13;3.77;;;3.13;;
579;SDS011;276;48.392;9.950;2022-10-16T02:45:39;3.10;;;2.80;;
579;SDS011;276;48.392;9.950;2022-10-16T02:48:06;3.57;;;3.37;;
579;SDS011;276;48.392;9.950;2022-10-16T02:50:32;3.10;;;2.90;;
579;SDS011;276;48.392;9.950;2022-10-16T02:53:05;4.30;;;2.50;;
579;SDS011;276;48.392;9.950;2022-10-16T02:55:30;4.60;;;3.50;;
579;SDS011;276;48.392;9.950;2022-10-16T02:57:58;3.70;;;2.53;;
579;SDS011;276;48.392;9.950;2022-10-16T03:00:24;2.93;;;2.73;;
579;SDS011;276;48.392;9.950;2022-10-16T03:02:49;3.10;;;2.90;;
579;SDS011;276;48.392;9.950;2022-10-16T03:05:15;2.77;;;2.57;;
579;SDS011;276;48.392;9.950;2022-10-16T03:07:41;3.53;;;3.03;;
579;SDS011;276;48.392;9.950;2022-10-16T03:10:07;4.60;;;3.10;;
579;SDS011;276;48.392;9.950;2022-10-16T03:12:33;6.00;;;3.97;;
579;SDS011;276;48.392;9.950;2022-10-16T03:15:01;3.00;;;2.80;;
579;SDS011;276;48.392;9.950;2022-10-16T03:17:27;3.50;;;2.80;;
579;SDS011;276;48.392;9.950;2022-10-16T03:19:53;3.20;;;2.80;;
579;SDS011;276;48.392;9.950;2022-10-16T03:22:20;4.20;;;2.93;;
579;SDS011;276;48.392;9.950;2022-10-16T03:24:48;3.57;;;3.23;;
579;SDS011;276;48.392;9.950;2022-10-16T03:27:17;3.20;;;3.00;;
579;SDS011;276;48.392;9.950;2022-10-16T03:29:44;2.90;;;2.70;;
579;SDS011;276;48.392;9.950;2022-10-16T03:32:10;3.40;;;3.10;;
579;SDS011;276;48.392;9.950;2022-10-16T03:34:38;3.37;;;3.07;;
579;SDS011;276;48.392;9.950;2022-10-16T03:37:04;3.20;;;3.00;;
579;SDS011;276;48.392;9.950;2022-10-16T03:39:29;4.57;;;3.40;;
579;SDS011;276;48.392;9.950;2022-10-16T03:41:57;4.27;;;3.87;;
579;SDS011;276;48.392;9.950;2022-10-16T03:44:23;4.27;;;3.30;;
579;SDS011;276;48.392;9.950;2022-10-16T03:46:51;4.23;;;3.53;;
579;SDS011;276;48.392;9.950;2022-10-16T03:49:16;3.77;;;3.47;;
579;SDS011;276;48.392;9.950;2022-10-16T03:51:44;4.00;;;3.50;;
579;SDS011;276;48.392;9.950;2022-10-16T03:54:14;3.43;;;3.13;;
579;SDS011;276;48.392;9.950;2022-10-16T03:56:42;4.10;;;3.80;;
579;SDS011;276;48.392;9.950;2022-10-16T03:59:07;4.20;;;3.90;;
579;SDS011;276;48.392;9.950;2022-10-16T04:01:33;3.53;;;3.23;;
579;SDS011;276;48.392;9.950;2022-10-16T04:04:01;3.67;;;3.37;;
579;SDS011;276;48.392;9.950;2022-10-16T04:06:26;5.90;;;3.20;;
579;SDS011;276;48.392;9.950;2022-10-16T04:08:54;4.33;;;4.03;;
579;SDS011;276;48.392;9.950;2022-10-16T04:11:21;3.23;;;3.03;;
579;SDS011;276;48.392;9.950;2022-10-16T04:13:49;3.40;;;3.17;;
579;SDS011;276;48.392;9.950;2022-10-16T04:16:14;4.77;;;3.27;;
579;SDS011;276;48.392;9.950;2022-10-16T04:18:40;4.43;;;3.37;;
579;SDS011;276;48.392;9.950;2022-10-16T04:21:10;3.80;;;3.50;;
579;SDS011;276;48.392;9.950;2022-10-16T04:23:38;9.60;;;3.87;;
579;SDS011;276;48.392;9.950;2022-10-16T04:26:08;3.77;;;3.47;;
579;SDS011;276;48.392;9.950;2022-10-16T04:28:35;3.70;;;3.40;;
579;SDS011;276;48.392;9.950;2022-10-16T04:31:03;3.20;;;2.93;;
579;SDS011;276;48.392;9.950;2022-10-16T04:33:31;3.37;;;3.17;;
579;SDS011;276;48.392;9.950;2022-10-16T04:36:02;4.33;;;3.53;;
579;SDS011;276;48.392;9.950;2022-10-16T04:38:30;3.53;;;3.20;;
579;SDS011;276;48.392;9.950;2022-10-16T04:41:00;3.80;;;3.60;;
579;SDS011;276;48.392;9.950;2022-10-16T04:43:26;3.20;;;3.00;;
579;SDS011;276;48.392;9.950;2022-10-16T04:45:54;3.40;;;3.17;;
579;SDS011;276;48.392;9.950;2022-10-16T04:48:20;3.40;;;3.20;;
579;SDS011;276;48.392;9.950;2022-10-16T04:50:50;3.53;;;3.30;;
579;SDS011;276;48.392;9.950;2022-10-16T04:53:16;3.30;;;3.00;;
579;SDS011;276;48.392;9.950;2022-10-16T04:55:46;3.67;;;3.47;;
579;SDS011;276;48.392;9.950;2022-10-16T04:58:11;4.03;;;3.63;;
579;SDS011;276;48.392;9.950;2022-10-16T05:00:39;3.97;;;2.90;;
579;SDS011;276;48.392;9.950;2022-10-16T05:03:05;3.23;;;2.93;;
579;SDS011;276;48.392;9.950;2022-10-16T05:05:34;4.00;;;2.97;;
579;SDS011;276;48.392;9.950;2022-10-16T05:08:00;3.33;;;3.03;;
579;SDS011;276;48.392;9.950;2022-10-16T05:10:25;3.13;;;2.93;;
579;SDS011;276;48.392;9.950;2022-10-16T05:12:51;2.80;;;2.70;;
579;SDS011;276;48.392;9.950;2022-10-16T05:15:19;3.53;;;3.23;;
579;SDS011;276;48.392;9.950;2022-10-16T05:17:51;3.80;;;3.40;;
579;SDS011;276;48.392;9.950;2022-10-16T05:20:20;4.17;;;3.87;;
579;SDS011;276;48.392;9.950;2022-10-16T05:22:47;5.10;;;4.70;;
579;SDS011;276;48.392;9.950;2022-10-16T05:25:15;14.17;;;5.80;;
579;SDS011;276;48.392;9.950;2022-10-16T05:27:41;5.40;;;4.90;;
579;SDS011;276;48.392;9.950;2022-10-16T05:30:11;8.00;;;4.87;;
579;SDS011;276;48.392;9.950;2022-10-16T05:32:36;6.27;;;5.13;;
579;SDS011;276;48.392;9.950;2022-10-16T05:35:02;5.70;;;5.20;;
579;SDS011;276;48.392;9.950;2022-10-16T05:37:28;5.40;;;5.00;;
579;SDS011;276;48.392;9.950;2022-10-16T05:39:56;5.00;;;4.60;;
579;SDS011;276;48.392;9.950;2022-10-16T05:42:24;4.00;;;3.70;;
579;SDS011;276;48.392;9.950;2022-10-16T05:44:49;5.10;;;4.70;;
579;SDS011;276;48.392;9.950;2022-10-16T05:47:15;8.73;;;4.70;;
579;SDS011;276;48.392;9.950;2022-10-16T05:49:45;14.80;;;7.23;;
579;SDS011;276;48.392;9.950;2022-10-16T05:52:16;5.90;;;5.40;;
579;SDS011;276;48.392;9.950;2022-10-16T05:54:44;5.03;;;4.50;;
579;SDS011;276;48.392;9.950;2022-10-16T05:57:10;5.37;;;4.60;;
579;SDS011;276;48.392;9.950;2022-10-16T05:59:36;9.10;;;4.67;;
579;SDS011;276;48.392;9.950;2022-10-16T06:02:03;5.00;;;4.50;;
579;SDS011;276;48.392;9.950;2022-10-16T06:04:32;4.80;;;4.40;;
579;SDS011;276;48.392;9.950;2022-10-16T06:06:58;4.60;;;4.20;;
579;SDS011;276;48.392;9.950;2022-10-16T06:09:27;4.37;;;3.93;;
579;SDS011;276;48.392;9.950;2022-10-16T06:11:52;3.97;;;3.63;;
579;SDS011;276;48.392;9.950;2022-10-16T06:14:20;4.63;;;4.20;;
579;SDS011;276;48.392;9.950;2022-10-16T06:16:46;4.60;;;4.30;;
579;SDS011;276;48.392;9.950;2022-10-16T06:19:14;4.17;;;3.87;;
579;SDS011;276;48.392;9.950;2022-10-16T06:21:41;4.87;;;4.40;;
579;SDS011;276;48.392;9.950;2022-10-16T06:24:07;4.40;;;4.10;;
579;SDS011;276;48.392;9.950;2022-10-16T06:26:35;4.97;;;4.67;;
579;SDS011;276;48.392;9.950;2022-10-16T06:29:02;4.90;;;4.60;;
579;SDS011;276;48.392;9.950;2022-10-16T06:31:30;6.53;;;4.90;;
579;SDS011;276;48.392;9.950;2022-10-16T06:33:58;5.43;;;5.03;;
579;SDS011;276;48.392;9.950;2022-10-16T06:36:27;4.40;;;4.10;;
579;SDS011;276;48.392;9.950;2022-10-16T06:38:53;5.50;;;5.10;;
579;SDS011;276;48.392;9.950;2022-10-16T06:41:21;7.90;;;6.73;;
579;SDS011;276;48.392;9.950;2022-10-16T06:43:48;11.97;;;10.37;;
579;SDS011;276;48.392;9.950;2022-10-16T06:46:18;10.47;;;9.50;;
579;SDS011;276;48.392;9.950;2022-10-16T06:48:48;9.87;;;8.97;;
579;SDS011;276;48.392;9.950;2022-10-16T06:51:17;8.73;;;8.03;;
579;SDS011;276;48.392;9.950;2022-10-16T06:53:45;9.00;;;8.10;;
579;SDS011;276;48.392;9.950;2022-10-16T06:58:46;5.90;;;5.40;;
579;SDS011;276;48.392;9.950;2022-10-16T07:01:15;6.90;;;6.30;;
579;SDS011;276;48.392;9.950;2022-10-16T07:03:42;6.80;;;5.77;;
579;SDS011;276;48.392;9.950;2022-10-16T07:06:10;5.07;;;4.70;;
579;SDS011;276;48.392;9.950;2022-10-16T07:08:39;6.57;;;5.97;;
579;SDS011;276;48.392;9.950;2022-10-16T07:11:09;5.47;;;4.97;;
579;SDS011;276;48.392;9.950;2022-10-16T07:13:37;5.33;;;4.83;;
579;SDS011;276;48.392;9.950;2022-10-16T07:16:07;5.60;;;4.80;;
579;SDS011;276;48.392;9.950;2022-10-16T07:18:34;5.60;;;5.10;;
579;SDS011;276;48.392;9.950;2022-10-16T07:21:07;5.33;;;5.00;;
579;SDS011;276;48.392;9.950;2022-10-16T07:23:39;5.70;;;3.77;;
579;SDS011;276;48.392;9.950;2022-10-16T07:26:05;3.83;;;3.53;;
579;SDS011;276;48.392;9.950;2022-10-16T07:28:37;3.63;;;3.33;;
579;SDS011;276;48.392;9.950;2022-10-16T07:31:06;4.27;;;3.97;;
579;SDS011;276;48.392;9.950;2022-10-16T07:33:35;4.10;;;3.80;;
579;SDS011;276;48.392;9.950;2022-10-16T07:36:06;4.43;;;4.10;;
579;SDS011;276;48.392;9.950;2022-10-16T07:38:37;4.40;;;4.10;;
579;SDS011;276;48.392;9.950;2022-10-16T07:41:06;3.67;;;3.37;;
579;SDS011;276;48.392;9.950;2022-10-16T07:43:34;5.97;;;4.43;;
579;SDS011;276;48.392;9.950;2022-10-16T07:46:00;4.37;;;4.00;;
579;SDS011;276;48.392;9.950;2022-10-16T07:48:29;4.33;;;3.87;;
579;SDS011;276;48.392;9.950;2022-10-16T07:50:59;4.30;;;3.97;;
579;SDS011;276;48.392;9.950;2022-10-16T07:53:31;4.13;;;3.80;;
579;SDS011;276;48.392;9.950;2022-10-16T07:56:00;4.43;;;3.50;;
579;SDS011;276;48.392;9.950;2022-10-16T07:58:31;3.63;;;3.43;;
579;SDS011;276;48.392;9.950;2022-10-16T08:00:57;3.20;;;2.90;;
579;SDS011;276;48.392;9.950;2022-10-16T08:03:28;3.50;;;3.20;;
579;SDS011;276;48.392;9.950;2022-10-16T08:05:56;6.03;;;2.63;;
579;SDS011;276;48.392;9.950;2022-10-16T08:08:23;5.00;;;3.87;;
579;SDS011;276;48.392;9.950;2022-10-16T08:10:48;3.27;;;3.07;;
579;SDS011;276;48.392;9.950;2022-10-16T08:13:14;3.33;;;3.07;;
579;SDS011;276;48.392;9.950;2022-10-16T08:15:43;4.87;;;3.70;;
579;SDS011;276;48.392;9.950;2022-10-16T08:18:10;7.13;;;5.37;;
579;SDS011;276;48.392;9.950;2022-10-16T08:20:37;7.40;;;6.43;;
579;SDS011;276;48.392;9.950;2022-10-16T08:23:03;4.93;;;4.53;;
579;SDS011;276;48.392;9.950;2022-10-16T08:25:29;5.03;;;4.40;;
579;SDS011;276;48.392;9.950;2022-10-16T08:27:55;4.33;;;4.03;;
579;SDS011;276;48.392;9.950;2022-10-16T08:30:23;3.53;;;3.20;;
579;SDS011;276;48.392;9.950;2022-10-16T08:32:52;3.63;;;3.33;;
579;SDS011;276;48.392;9.950;2022-10-16T08:35:20;3.50;;;3.30;;
579;SDS011;276;48.392;9.950;2022-10-16T08:37:47;6.00;;;3.17;;
579;SDS011;276;48.392;9.950;2022-10-16T08:40:18;4.63;;;2.90;;
579;SDS011;276;48.392;9.950;2022-10-16T08:51:08;3.50;;;3.30;;
579;SDS011;276;48.392;9.950;2022-10-16T08:53:52;4.73;;;3.90;;
579;SDS011;276;48.392;9.950;2022-10-16T08:56:23;3.43;;;3.23;;
579;SDS011;276;48.392;9.950;2022-10-16T08:58:52;3.70;;;3.43;;
579;SDS011;276;48.392;9.950;2022-10-16T09:01:19;2.93;;;2.73;;
579;SDS011;276;48.392;9.950;2022-10-16T09:06:55;5.37;;;3.40;;
579;SDS011;276;48.392;9.950;2022-10-16T09:09:40;3.33;;;3.03;;
579;SDS011;276;48.392;9.950;2022-10-16T09:17:51;4.20;;;2.60;;
579;SDS011;276;48.392;9.950;2022-10-16T09:23:22;5.90;;;3.63;;
579;SDS011;276;48.392;9.950;2022-10-16T09:25:54;3.20;;;2.90;;
579;SDS011;276;48.392;9.950;2022-10-16T09:28:23;4.83;;;3.13;;
579;SDS011;276;48.392;9.950;2022-10-16T09:30:51;7.90;;;4.50;;
579;SDS011;276;48.392;9.950;2022-10-16T09:33:18;3.87;;;3.57;;
579;SDS011;276;48.392;9.950;2022-10-16T09:35:50;3.23;;;3.03;;
579;SDS011;276;48.392;9.950;2022-10-16T09:38:31;4.07;;;3.67;;
579;SDS011;276;48.392;9.950;2022-10-16T09:41:17;3.50;;;3.03;;
579;SDS011;276;48.392;9.950;2022-10-16T09:46:27;3.67;;;3.37;;
579;SDS011;276;48.392;9.950;2022-10-16T09:49:04;3.67;;;3.13;;
579;SDS011;276;48.392;9.950;2022-10-16T09:51:44;5.90;;;3.33;;
579;SDS011;276;48.392;9.950;2022-10-16T09:56:47;7.23;;;3.70;;
579;SDS011;276;48.392;9.950;2022-10-16T09:59:19;4.40;;;4.00;;
579;SDS011;276;48.392;9.950;2022-10-16T10:01:52;3.83;;;3.10;;
579;SDS011;276;48.392;9.950;2022-10-16T10:04:20;3.93;;;2.87;;
579;SDS011;276;48.392;9.950;2022-10-16T10:06:48;3.80;;;3.30;;
579;SDS011;276;48.392;9.950;2022-10-16T10:09:32;3.73;;;2.63;;
579;SDS011;276;48.392;9.950;2022-10-16T10:12:03;3.60;;;2.90;;
579;SDS011;276;48.392;9.950;2022-10-16T10:17:07;5.00;;;2.90;;
579;SDS011;276;48.392;9.950;2022-10-16T10:19:49;3.30;;;2.57;;
579;SDS011;276;48.392;9.950;2022-10-16T10:22:18;5.10;;;2.50;;
579;SDS011;276;48.392;9.950;2022-10-16T10:27:34;3.73;;;3.07;;
579;SDS011;276;48.392;9.950;2022-10-16T10:30:19;3.20;;;2.90;;
579;SDS011;276;48.392;9.950;2022-10-16T10:32:49;3.33;;;2.93;;
579;SDS011;276;48.392;9.950;2022-10-16T10:44:29;4.97;;;2.70;;
579;SDS011;276;48.392;9.950;2022-10-16T10:53:00;3.10;;;2.90;;
579;SDS011;276;48.392;9.950;2022-10-16T11:06:23;2.77;;;2.57;;
579;SDS011;276;48.392;9.950;2022-10-16T11:08:56;3.43;;;3.13;;
579;SDS011;276;48.392;9.950;2022-10-16T11:12:25;3.20;;;3.00;;
579;SDS011;276;48.392;9.950;2022-10-16T11:14:48;2.80;;;2.40;;
579;SDS011;276;48.392;9.950;2022-10-16T11:17:22;2.70;;;2.50;;
579;SDS011;276;48.392;9.950;2022-10-16T11:22:34;2.43;;;2.10;;
579;SDS011;276;48.392;9.950;2022-10-16T11:33:25;2.77;;;2.13;;
579;SDS011;276;48.392;9.950;2022-10-16T11:36:04;2.27;;;2.17;;
579;SDS011;276;48.392;9.950;2022-10-16T11:46:40;4.50;;;2.03;;
579;SDS011;276;48.392;9.950;2022-10-16T11:49:15;3.63;;;2.27;;
579;SDS011;276;48.392;9.950;2022-10-16T11:51:51;2.73;;;2.30;;
579;SDS011;276;48.392;9.950;2022-10-16T11:54:25;7.97;;;2.80;;
579;SDS011;276;48.392;9.950;2022-10-16T11:57:10;2.00;;;1.80;;
579;SDS011;276;48.392;9.950;2022-10-16T11:59:58;2.37;;;2.20;;
579;SDS011;276;48.392;9.950;2022-10-16T12:05:19;2.93;;;2.30;;
579;SDS011;276;48.392;9.950;2022-10-16T12:07:53;3.27;;;2.27;;
579;SDS011;276;48.392;9.950;2022-10-16T12:10:32;3.10;;;2.20;;
579;SDS011;276;48.392;9.950;2022-10-16T12:13:04;2.70;;;2.50;;
579;SDS011;276;48.392;9.950;2022-10-16T12:15:31;2.77;;;2.30;;
579;SDS011;276;48.392;9.950;2022-10-16T12:17:58;4.37;;;1.97;;
579;SDS011;276;48.392;9.950;2022-10-16T12:20:30;5.50;;;2.40;;
579;SDS011;276;48.392;9.950;2022-10-16T12:23:02;5.27;;;2.80;;
579;SDS011;276;48.392;9.950;2022-10-16T12:25:32;3.00;;;2.10;;
579;SDS011;276;48.392;9.950;2022-10-16T12:28:18;3.07;;;2.87;;
579;SDS011;276;48.392;9.950;2022-10-16T12:30:54;2.23;;;2.10;;
579;SDS011;276;48.392;9.950;2022-10-16T12:33:28;2.70;;;2.37;;
579;SDS011;276;48.392;9.950;2022-10-16T12:35:59;2.80;;;2.10;;
579;SDS011;276;48.392;9.950;2022-10-16T12:41:08;2.17;;;1.80;;
579;SDS011;276;48.392;9.950;2022-10-16T12:48:36;2.57;;;1.73;;
579;SDS011;276;48.392;9.950;2022-10-16T12:54:28;2.80;;;1.90;;
579;SDS011;276;48.392;9.950;2022-10-16T13:00:00;2.13;;;2.03;;
579;SDS011;276;48.392;9.950;2022-10-16T13:02:45;2.50;;;2.10;;
579;SDS011;276;48.392;9.950;2022-10-16T13:16:13;4.23;;;2.10;;
579;SDS011;276;48.392;9.950;2022-10-16T13:21:38;1.63;;;1.53;;
579;SDS011;276;48.392;9.950;2022-10-16T13:24:42;3.47;;;2.07;;
579;SDS011;276;48.392;9.950;2022-10-16T13:30:28;2.13;;;2.03;;
579;SDS011;276;48.392;9.950;2022-10-16T13:32:59;1.97;;;1.87;;
579;SDS011;276;48.392;9.950;2022-10-16T13:35:32;3.00;;;2.30;;
579;SDS011;276;48.392;9.950;2022-10-16T13:38:11;3.10;;;2.07;;
579;SDS011;276;48.392;9.950;2022-10-16T13:40:47;2.50;;;1.97;;
579;SDS011;276;48.392;9.950;2022-10-16T13:43:22;2.13;;;2.03;;
579;SDS011;276;48.392;9.950;2022-10-16T13:48:42;1.93;;;1.40;;
579;SDS011;276;48.392;9.950;2022-10-16T13:51:18;1.60;;;1.50;;
579;SDS011;276;48.392;9.950;2022-10-16T13:53:46;2.43;;;1.60;;
579;SDS011;276;48.392;9.950;2022-10-16T13:56:13;1.70;;;1.60;;
579;SDS011;276;48.392;9.950;2022-10-16T13:58:40;1.83;;;1.70;;
579;SDS011;276;48.392;9.950;2022-10-16T14:01:25;2.20;;;1.80;;
579;SDS011;276;48.392;9.950;2022-10-16T14:04:13;2.07;;;1.97;;
579;SDS011;276;48.392;9.950;2022-10-16T14:06:42;2.47;;;2.27;;
579;SDS011;276;48.392;9.950;2022-10-16T14:12:03;1.70;;;1.60;;
579;SDS011;276;48.392;9.950;2022-10-16T14:14:46;1.70;;;1.60;;
579;SDS011;276;48.392;9.950;2022-10-16T14:17:26;2.87;;;1.73;;
579;SDS011;276;48.392;9.950;2022-10-16T14:19:55;1.73;;;1.63;;
579;SDS011;276;48.392;9.950;2022-10-16T14:25:13;3.13;;;1.80;;
579;SDS011;276;48.392;9.950;2022-10-16T14:27:45;1.80;;;1.70;;
579;SDS011;276;48.392;9.950;2022-10-16T14:30:22;1.50;;;1.40;;
579;SDS011;276;48.392;9.950;2022-10-16T14:32:57;2.37;;;2.17;;
579;SDS011;276;48.392;9.950;2022-10-16T14:35:24;2.50;;;1.83;;
579;SDS011;276;48.392;9.950;2022-10-16T14:38:18;1.90;;;1.70;;
579;SDS011;276;48.392;9.950;2022-10-16T14:40:48;1.57;;;1.47;;
579;SDS011;276;48.392;9.950;2022-10-16T14:43:19;1.93;;;1.83;;
579;SDS011;276;48.392;9.950;2022-10-16T14:46:01;1.67;;;1.57;;
579;SDS011;276;48.392;9.950;2022-10-16T14:48:32;1.97;;;1.70;;
579;SDS011;276;48.392;9.950;2022-10-16T14:50:58;2.53;;;1.63;;
579;SDS011;276;48.392;9.950;2022-10-16T14:53:24;1.67;;;1.57;;
579;SDS011;276;48.392;9.950;2022-10-16T14:55:49;1.40;;;1.30;;
579;SDS011;276;48.392;9.950;2022-10-16T14:58:19;1.10;;;1.00;;
579;SDS011;276;48.392;9.950;2022-10-16T15:00:51;1.53;;;1.30;;
579;SDS011;276;48.392;9.950;2022-10-16T15:03:16;1.37;;;1.27;;
579;SDS011;276;48.392;9.950;2022-10-16T15:05:46;1.83;;;1.73;;
579;SDS011;276;48.392;9.950;2022-10-16T15:08:14;1.60;;;1.50;;
579;SDS011;276;48.392;9.950;2022-10-16T15:10:42;2.13;;;1.20;;
579;SDS011;276;48.392;9.950;2022-10-16T15:13:11;1.60;;;1.50;;
579;SDS011;276;48.392;9.950;2022-10-16T15:15:43;3.30;;;1.73;;
579;SDS011;276;48.392;9.950;2022-10-16T15:18:14;1.90;;;1.80;;
579;SDS011;276;48.392;9.950;2022-10-16T15:20:45;1.67;;;1.57;;
579;SDS011;276;48.392;9.950;2022-10-16T15:25:43;2.53;;;2.33;;
579;SDS011;276;48.392;9.950;2022-10-16T15:28:17;3.10;;;2.77;;
579;SDS011;276;48.392;9.950;2022-10-16T15:30:46;2.50;;;2.40;;
579;SDS011;276;48.392;9.950;2022-10-16T15:33:16;4.30;;;3.77;;
579;SDS011;276;48.392;9.950;2022-10-16T15:35:46;3.23;;;2.93;;
579;SDS011;276;48.392;9.950;2022-10-16T15:38:13;4.03;;;3.00;;
579;SDS011;276;48.392;9.950;2022-10-16T15:40:42;4.10;;;3.80;;
579;SDS011;276;48.392;9.950;2022-10-16T15:43:08;4.27;;;3.40;;
579;SDS011;276;48.392;9.950;2022-10-16T15:45:36;5.87;;;4.03;;
579;SDS011;276;48.392;9.950;2022-10-16T15:48:02;4.40;;;3.00;;
579;SDS011;276;48.392;9.950;2022-10-16T15:50:31;4.63;;;2.57;;
579;SDS011;276;48.392;9.950;2022-10-16T15:52:59;8.27;;;2.10;;
579;SDS011;276;48.392;9.950;2022-10-16T15:55:35;6.73;;;2.43;;
579;SDS011;276;48.392;9.950;2022-10-16T15:58:03;2.80;;;2.13;;
579;SDS011;276;48.392;9.950;2022-10-16T16:00:31;1.70;;;1.60;;
579;SDS011;276;48.392;9.950;2022-10-16T16:02:59;2.10;;;1.53;;
579;SDS011;276;48.392;9.950;2022-10-16T16:05:27;2.20;;;2.00;;
579;SDS011;276;48.392;9.950;2022-10-16T16:07:57;2.47;;;2.37;;
579;SDS011;276;48.392;9.950;2022-10-16T16:10:23;2.53;;;2.10;;
579;SDS011;276;48.392;9.950;2022-10-16T16:12:51;2.10;;;1.90;;
579;SDS011;276;48.392;9.950;2022-10-16T16:15:22;2.53;;;1.70;;
579;SDS011;276;48.392;9.950;2022-10-16T16:17:47;2.07;;;1.97;;
579;SDS011;276;48.392;9.950;2022-10-16T16:20:13;2.80;;;2.20;;
579;SDS011;276;48.392;9.950;2022-10-16T16:22:39;3.70;;;2.67;;
579;SDS011;276;48.392;9.950;2022-10-16T16:25:07;3.87;;;3.17;;
579;SDS011;276;48.392;9.950;2022-10-16T16:27:33;5.80;;;3.00;;
579;SDS011;276;48.392;9.950;2022-10-16T16:30:00;2.90;;;2.23;;
579;SDS011;276;48.392;9.950;2022-10-16T16:32:30;4.10;;;2.60;;
579;SDS011;276;48.392;9.950;2022-10-16T16:34:58;3.00;;;2.37;;
579;SDS011;276;48.392;9.950;2022-10-16T16:37:24;3.43;;;2.40;;
579;SDS011;276;48.392;9.950;2022-10-16T16:39:51;2.60;;;2.40;;
579;SDS011;276;48.392;9.950;2022-10-16T16:42:23;3.00;;;2.50;;
579;SDS011;276;48.392;9.950;2022-10-16T16:44:56;3.60;;;3.30;;
579;SDS011;276;48.392;9.950;2022-10-16T16:47:27;2.50;;;2.30;;
579;SDS011;276;48.392;9.950;2022-10-16T16:49:52;9.83;;;3.07;;
579;SDS011;276;48.392;9.950;2022-10-16T16:52:18;2.70;;;2.37;;
579;SDS011;276;48.392;9.950;2022-10-16T16:54:47;6.53;;;2.70;;
579;SDS011;276;48.392;9.950;2022-10-16T16:57:21;3.20;;;2.27;;
579;SDS011;276;48.392;9.950;2022-10-16T16:59:51;2.40;;;2.30;;
579;SDS011;276;48.392;9.950;2022-10-16T17:02:19;3.00;;;2.33;;
579;SDS011;276;48.392;9.950;2022-10-16T17:04:50;5.20;;;3.30;;
579;SDS011;276;48.392;9.950;2022-10-16T17:07:18;5.07;;;2.90;;
579;SDS011;276;48.392;9.950;2022-10-16T17:09:49;3.93;;;3.40;;
579;SDS011;276;48.392;9.950;2022-10-16T17:12:16;3.60;;;3.30;;
579;SDS011;276;48.392;9.950;2022-10-16T17:14:45;7.27;;;4.10;;
579;SDS011;276;48.392;9.950;2022-10-16T17:17:12;4.33;;;3.50;;
579;SDS011;276;48.392;9.950;2022-10-16T17:19:38;4.20;;;3.30;;
579;SDS011;276;48.392;9.950;2022-10-16T17:22:08;3.73;;;3.43;;
579;SDS011;276;48.392;9.950;2022-10-16T17:24:36;2.83;;;2.63;;
579;SDS011;276;48.392;9.950;2022-10-16T17:27:04;4.30;;;3.20;;
579;SDS011;276;48.392;9.950;2022-10-16T17:29:34;5.27;;;3.63;;
579;SDS011;276;48.392;9.950;2022-10-16T17:32:02;4.00;;;3.40;;
579;SDS011;276;48.392;9.950;2022-10-16T17:34:28;7.40;;;6.70;;
579;SDS011;276;48.392;9.950;2022-10-16T17:36:54;6.00;;;5.43;;
579;SDS011;276;48.392;9.950;2022-10-16T17:39:19;6.40;;;5.90;;
579;SDS011;276;48.392;9.950;2022-10-16T17:41:45;7.73;;;6.77;;
579;SDS011;276;48.392;9.950;2022-10-16T17:44:14;7.33;;;6.47;;
579;SDS011;276;48.392;9.950;2022-10-16T17:46:47;9.83;;;7.60;;
579;SDS011;276;48.392;9.950;2022-10-16T17:49:17;7.40;;;6.80;;
579;SDS011;276;48.392;9.950;2022-10-16T17:51:43;6.20;;;5.40;;
579;SDS011;276;48.392;9.950;2022-10-16T17:54:09;5.00;;;4.60;;
579;SDS011;276;48.392;9.950;2022-10-16T17:56:41;6.47;;;5.93;;
579;SDS011;276;48.392;9.950;2022-10-16T17:59:09;5.83;;;5.20;;
579;SDS011;276;48.392;9.950;2022-10-16T18:01:38;5.33;;;4.83;;
579;SDS011;276;48.392;9.950;2022-10-16T18:04:11;3.87;;;3.50;;
579;SDS011;276;48.392;9.950;2022-10-16T18:06:42;5.97;;;4.20;;
579;SDS011;276;48.392;9.950;2022-10-16T18:09:12;5.13;;;4.37;;
579;SDS011;276;48.392;9.950;2022-10-16T18:11:42;5.47;;;4.53;;
579;SDS011;276;48.392;9.950;2022-10-16T18:14:10;8.70;;;6.80;;
579;SDS011;276;48.392;9.950;2022-10-16T18:16:38;5.83;;;5.33;;
579;SDS011;276;48.392;9.950;2022-10-16T18:19:08;9.27;;;5.40;;
579;SDS011;276;48.392;9.950;2022-10-16T18:21:35;10.10;;;5.70;;
579;SDS011;276;48.392;9.950;2022-10-16T18:24:03;4.80;;;4.50;;
579;SDS011;276;48.392;9.950;2022-10-16T18:26:29;7.57;;;5.00;;
579;SDS011;276;48.392;9.950;2022-10-16T18:28:57;5.70;;;4.40;;